Time;durP1;ratioP1;P1;durP2;ratioP2;P2;SDS_P1;SDS_P2;PMS_P1;PMS_P2;Temp;Humidity;BMP_temperature;BMP_pressure;BME280_temperature;BME280_humidity;BME280_pressure;Samples;Min_cycle;Max_cycle;Signal;HPM_P1;HPM_P2
2023/09/21 00:00:59;;;;;;;2.93;2.63;;;13.90;99.90;;;;;;4991382;28;20539;-64
2023/09/21 00:03:28;;;;;;;2.63;2.50;;;13.90;99.90;;;;;;4976014;28;20449;-64
2023/09/21 00:05:56;;;;;;;2.77;2.57;;;13.80;99.90;;;;;;4973011;28;20488;-64
2023/09/21 00:08:23;;;;;;;5.03;2.57;;;13.80;99.90;;;;;;4973043;28;20468;-64
2023/09/21 00:10:50;;;;;;;2.80;2.50;;;13.80;99.90;;;;;;4972909;28;20911;-64
2023/09/21 00:13:17;;;;;;;2.93;2.63;;;13.80;99.90;;;;;;4973071;28;20448;-64
2023/09/21 00:15:44;;;;;;;2.80;2.60;;;13.80;99.90;;;;;;4982946;28;20488;-64
2023/09/21 00:18:13;;;;;;;2.50;2.30;;;13.80;99.90;;;;;;4992443;28;20448;-64
2023/09/21 00:20:48;;;;;;;2.50;2.30;;;13.80;99.90;;;;;;4989962;28;20976;-64
2023/09/21 00:23:16;;;;;;;2.70;2.50;;;13.70;99.90;;;;;;4985895;28;20523;-64
2023/09/21 00:25:44;;;;;;;3.33;2.87;;;13.70;99.90;;;;;;4992412;28;20559;-64
2023/09/21 00:28:12;;;;;;;2.90;2.70;;;13.70;99.90;;;;;;4992275;28;20450;-64
2023/09/21 00:30:39;;;;;;;3.00;2.60;;;13.60;99.90;;;;;;4992390;28;20447;-64
2023/09/21 00:33:07;;;;;;;2.73;2.53;;;13.60;99.90;;;;;;4991796;28;20449;-64
2023/09/21 00:35:35;;;;;;;3.13;2.83;;;13.60;99.90;;;;;;4983787;28;20489;-64
2023/09/21 00:38:02;;;;;;;3.17;2.57;;;13.60;99.90;;;;;;4991847;28;20849;-64
2023/09/21 00:40:30;;;;;;;3.00;2.60;;;13.60;99.90;;;;;;4992189;28;20547;-64
2023/09/21 00:42:57;;;;;;;3.00;2.70;;;13.60;99.90;;;;;;4991783;28;20961;-64
2023/09/21 00:45:24;;;;;;;3.17;2.77;;;13.60;99.90;;;;;;4991997;28;20463;-64
2023/09/21 00:47:52;;;;;;;2.93;2.73;;;13.60;99.90;;;;;;4992207;28;21026;-64
2023/09/21 00:50:22;;;;;;;4.63;2.67;;;13.50;99.90;;;;;;4991699;28;20550;-64
2023/09/21 00:52:52;;;;;;;5.43;2.43;;;13.50;99.90;;;;;;4991828;28;20450;-64
2023/09/21 00:55:24;;;;;;;2.80;2.60;;;13.50;99.90;;;;;;4992037;28;20491;-64
2023/09/21 00:57:55;;;;;;;2.60;2.50;;;13.50;99.90;;;;;;4992217;28;20551;-64
2023/09/21 01:00:25;;;;;;;2.97;2.63;;;13.40;99.90;;;;;;4992050;28;20490;-64
2023/09/21 01:02:54;;;;;;;3.17;2.97;;;13.40;99.90;;;;;;4991549;28;20538;-64
2023/09/21 01:05:21;;;;;;;2.53;2.33;;;13.40;99.90;;;;;;4991857;28;20446;-64
2023/09/21 01:07:48;;;;;;;3.27;3.07;;;13.40;99.90;;;;;;4992034;28;20458;-64
2023/09/21 01:10:19;;;;;;;2.83;2.63;;;13.40;99.90;;;;;;4991913;28;20837;-64
2023/09/21 01:12:49;;;;;;;2.87;2.70;;;13.30;99.90;;;;;;4991681;28;20884;-64
2023/09/21 01:15:17;;;;;;;2.97;2.53;;;13.30;99.90;;;;;;4991679;28;20532;-65
2023/09/21 01:17:46;;;;;;;3.37;2.60;;;13.30;99.90;;;;;;4991595;28;20443;-64
2023/09/21 01:20:16;;;;;;;2.43;2.10;;;13.30;99.90;;;;;;4991884;28;20476;-64
2023/09/21 01:22:46;;;;;;;3.00;2.80;;;13.30;99.90;;;;;;4991651;28;20445;-64
2023/09/21 01:25:15;;;;;;;4.50;2.30;;;13.20;99.90;;;;;;4991752;28;20535;-64
2023/09/21 01:27:42;;;;;;;2.87;2.67;;;13.20;99.90;;;;;;4991960;28;20880;-64
2023/09/21 01:30:12;;;;;;;4.57;3.03;;;13.20;99.90;;;;;;4991552;28;20474;-64
2023/09/21 01:32:39;;;;;;;2.60;2.50;;;13.20;99.90;;;;;;4991414;28;20455;-64
2023/09/21 01:35:07;;;;;;;2.87;2.57;;;13.20;99.90;;;;;;4978283;28;20484;-64
2023/09/21 01:37:35;;;;;;;3.53;2.60;;;13.20;99.90;;;;;;4972011;28;20542;-64
2023/09/21 01:40:07;;;;;;;3.27;3.00;;;13.20;99.90;;;;;;4972320;28;20564;-64
2023/09/21 01:42:36;;;;;;;3.90;2.63;;;13.10;99.90;;;;;;4971954;28;21012;-65
2023/09/21 01:45:08;;;;;;;3.20;3.00;;;13.10;99.90;;;;;;4972171;28;20535;-64
2023/09/21 01:47:36;;;;;;;2.47;2.37;;;13.10;99.90;;;;;;4972324;28;20458;-64
2023/09/21 01:50:06;;;;;;;2.63;2.43;;;13.00;99.90;;;;;;4972108;28;20472;-64
2023/09/21 01:52:34;;;;;;;4.20;2.43;;;13.00;99.90;;;;;;4971916;28;20556;-65
2023/09/21 01:55:06;;;;;;;2.70;2.50;;;13.00;99.90;;;;;;4971822;28;20542;-64
2023/09/21 01:57:33;;;;;;;2.63;2.43;;;13.00;99.90;;;;;;4974726;28;20491;-64
2023/09/21 02:00:11;;;;;;;2.90;2.70;;;13.00;99.90;;;;;;4975404;28;20850;-64
2023/09/21 02:02:38;;;;;;;2.90;2.70;;;13.00;99.90;;;;;;4975183;28;20451;-64
2023/09/21 02:05:08;;;;;;;3.50;2.83;;;13.00;99.90;;;;;;4975394;28;20450;-64
2023/09/21 02:07:35;;;;;;;3.07;2.37;;;13.00;99.90;;;;;;4975455;28;20452;-64
2023/09/21 02:10:09;;;;;;;5.30;2.67;;;12.90;99.90;;;;;;4975233;28;20467;-64
2023/09/21 02:12:37;;;;;;;2.77;2.57;;;12.90;99.90;;;;;;4975207;28;20456;-64
2023/09/21 02:15:09;;;;;;;3.27;3.07;;;12.90;99.90;;;;;;4975144;28;20865;-64
2023/09/21 02:17:36;;;;;;;2.70;2.50;;;12.90;99.90;;;;;;4975284;28;20463;-64
2023/09/21 02:20:12;;;;;;;2.80;2.50;;;12.90;99.90;;;;;;4975030;28;20867;-64
2023/09/21 02:22:39;;;;;;;2.90;2.70;;;12.90;99.90;;;;;;4974808;28;20447;-64
2023/09/21 02:25:10;;;;;;;3.17;2.50;;;12.90;99.90;;;;;;4975296;28;20507;-64
2023/09/21 02:27:37;;;;;;;2.93;2.73;;;12.90;99.90;;;;;;4975163;28;20485;-64
2023/09/21 02:30:07;;;;;;;3.83;3.20;;;12.90;99.90;;;;;;4974891;28;20499;-64
2023/09/21 02:32:34;;;;;;;2.40;2.20;;;12.90;99.90;;;;;;4974616;28;20451;-64
2023/09/21 02:35:01;;;;;;;2.80;2.60;;;12.90;99.90;;;;;;4974794;28;20491;-64
2023/09/21 02:37:28;;;;;;;3.00;2.80;;;12.90;99.90;;;;;;4974990;28;20487;-64
2023/09/21 02:39:54;;;;;;;2.80;2.60;;;12.90;99.90;;;;;;4974712;28;20515;-64
2023/09/21 02:42:21;;;;;;;2.50;2.30;;;13.00;99.90;;;;;;4974812;28;20458;-64
2023/09/21 02:44:48;;;;;;;3.00;2.70;;;13.00;99.90;;;;;;4974718;28;20541;-64
2023/09/21 02:47:17;;;;;;;3.03;2.83;;;13.00;99.90;;;;;;4974641;28;20565;-64
2023/09/21 02:49:44;;;;;;;2.40;2.30;;;13.00;99.90;;;;;;4974768;28;20545;-64
2023/09/21 02:52:12;;;;;;;4.00;2.80;;;13.10;99.90;;;;;;4974200;28;20934;-64
2023/09/21 02:54:39;;;;;;;2.70;2.50;;;13.20;99.90;;;;;;4974404;28;20452;-64
2023/09/21 02:57:07;;;;;;;3.03;2.73;;;13.20;99.90;;;;;;4974379;28;20454;-64
2023/09/21 02:59:35;;;;;;;6.27;2.70;;;13.20;99.90;;;;;;4974292;28;20488;-64
2023/09/21 03:02:03;;;;;;;3.67;3.37;;;13.20;99.90;;;;;;4974388;28;20452;-64
2023/09/21 03:04:31;;;;;;;2.90;2.60;;;13.30;99.90;;;;;;4974311;28;20964;-65
2023/09/21 03:06:59;;;;;;;2.77;2.30;;;13.30;99.90;;;;;;4974312;28;20797;-64
2023/09/21 03:09:27;;;;;;;2.70;2.50;;;13.20;99.90;;;;;;4974240;28;20474;-64
2023/09/21 03:11:54;;;;;;;3.73;2.80;;;13.30;99.90;;;;;;4974345;28;20452;-64
2023/09/21 03:14:25;;;;;;;3.37;2.90;;;13.30;99.90;;;;;;4973800;28;20458;-64
2023/09/21 03:16:52;;;;;;;2.23;2.03;;;13.30;99.90;;;;;;4972898;28;20493;-64
2023/09/21 03:19:19;;;;;;;2.23;2.13;;;13.30;99.90;;;;;;4973560;28;20523;-65
2023/09/21 03:21:47;;;;;;;2.10;2.00;;;13.30;99.90;;;;;;4973803;28;20569;-65
2023/09/21 03:24:14;;;;;;;2.47;2.37;;;13.30;99.90;;;;;;4973661;28;20452;-64
2023/09/21 03:26:41;;;;;;;4.40;3.30;;;13.30;99.90;;;;;;4973980;28;20448;-65
2023/09/21 03:29:10;;;;;;;4.93;2.87;;;13.30;99.90;;;;;;4973552;28;20471;-64
2023/09/21 03:31:37;;;;;;;3.07;2.77;;;13.30;99.90;;;;;;4973639;28;20451;-64
2023/09/21 03:34:05;;;;;;;2.40;2.20;;;13.30;99.90;;;;;;4973597;28;20448;-64
2023/09/21 03:36:35;;;;;;;2.70;2.33;;;13.30;99.90;;;;;;4973632;28;20580;-64
2023/09/21 03:39:09;;;;;;;3.27;2.70;;;13.40;99.90;;;;;;4973809;28;20471;-64
2023/09/21 03:41:36;;;;;;;3.70;2.77;;;13.30;99.90;;;;;;4973881;28;20471;-64
2023/09/21 03:44:05;;;;;;;2.53;2.33;;;13.40;99.90;;;;;;4973326;28;20459;-64
2023/09/21 03:46:33;;;;;;;4.73;2.90;;;13.40;99.90;;;;;;4973579;28;20812;-64
2023/09/21 03:48:59;;;;;;;3.00;2.60;;;13.40;99.90;;;;;;4973754;28;20515;-64
2023/09/21 03:51:26;;;;;;;2.30;2.20;;;13.40;99.90;;;;;;4973673;28;21034;-64
2023/09/21 03:53:54;;;;;;;3.10;2.77;;;13.40;99.90;;;;;;4973285;28;20445;-64
2023/09/21 03:56:23;;;;;;;3.23;2.93;;;13.50;99.90;;;;;;4973359;28;20495;-64
2023/09/21 03:58:50;;;;;;;2.63;2.40;;;13.50;99.90;;;;;;4973124;28;20982;-64
2023/09/21 04:01:17;;;;;;;2.90;2.60;;;13.60;99.90;;;;;;4973352;28;20446;-64
2023/09/21 04:03:44;;;;;;;3.60;2.93;;;13.60;99.90;;;;;;4973013;28;20451;-64
2023/09/21 04:06:11;;;;;;;3.27;3.03;;;13.60;99.90;;;;;;4973271;28;20479;-64
2023/09/21 04:08:38;;;;;;;3.20;3.00;;;13.70;99.90;;;;;;4973392;28;21037;-64
2023/09/21 04:11:05;;;;;;;3.20;2.77;;;13.70;99.90;;;;;;4973135;28;20810;-64
2023/09/21 04:13:34;;;;;;;2.80;2.67;;;13.70;99.90;;;;;;4972701;28;20450;-65
2023/09/21 04:16:05;;;;;;;2.63;2.33;;;13.70;99.90;;;;;;4973108;28;20504;-64
2023/09/21 04:18:32;;;;;;;2.40;2.20;;;13.70;99.90;;;;;;4972969;28;20457;-64
2023/09/21 04:21:00;;;;;;;2.60;2.40;;;13.70;99.90;;;;;;4972743;28;20835;-64
2023/09/21 04:23:28;;;;;;;2.77;2.57;;;13.70;99.90;;;;;;4972795;28;20452;-64
2023/09/21 04:25:55;;;;;;;3.80;2.70;;;13.70;99.90;;;;;;4972951;28;20518;-65
2023/09/21 04:28:22;;;;;;;2.97;2.67;;;13.70;99.90;;;;;;4973004;28;20472;-64
2023/09/21 04:30:51;;;;;;;3.30;3.10;;;13.70;99.90;;;;;;4972983;28;20550;-65
2023/09/21 04:33:17;;;;;;;2.67;2.43;;;13.70;99.90;;;;;;4972488;28;20970;-64
2023/09/21 04:35:44;;;;;;;2.93;2.70;;;13.70;99.90;;;;;;4972765;28;20490;-64
2023/09/21 04:38:11;;;;;;;3.00;2.80;;;13.70;99.90;;;;;;4972743;28;20535;-64
2023/09/21 04:40:38;;;;;;;2.70;2.50;;;13.80;99.90;;;;;;4972647;28;20547;-64
2023/09/21 04:43:05;;;;;;;3.10;2.60;;;13.80;99.90;;;;;;4972615;28;20537;-64
2023/09/21 04:45:33;;;;;;;2.40;2.13;;;13.80;99.90;;;;;;4972886;28;20448;-65
2023/09/21 04:48:03;;;;;;;2.53;2.33;;;13.80;99.90;;;;;;4972789;28;20460;-64
2023/09/21 04:50:30;;;;;;;2.40;2.23;;;13.70;99.90;;;;;;4972612;28;20939;-64
2023/09/21 04:52:57;;;;;;;3.30;2.87;;;13.70;99.90;;;;;;4972421;28;20444;-65
2023/09/21 04:55:25;;;;;;;3.23;2.93;;;13.70;99.90;;;;;;4972740;28;20485;-64
2023/09/21 04:57:52;;;;;;;2.67;2.57;;;13.70;99.90;;;;;;4972734;28;20456;-64
2023/09/21 05:00:19;;;;;;;2.17;2.07;;;13.70;99.90;;;;;;4972432;28;20476;-64
2023/09/21 05:02:46;;;;;;;2.90;2.70;;;13.70;99.90;;;;;;4972360;28;20839;-65
2023/09/21 05:05:15;;;;;;;4.30;2.80;;;13.70;99.90;;;;;;4972399;28;21003;-64
2023/09/21 05:07:42;;;;;;;2.70;2.30;;;13.60;99.90;;;;;;4972691;28;20460;-65
2023/09/21 05:10:12;;;;;;;3.67;2.50;;;13.60;99.90;;;;;;4972539;28;20558;-64
2023/09/21 05:12:39;;;;;;;3.13;2.93;;;13.60;99.90;;;;;;4979417;28;20957;-65
2023/09/21 05:15:08;;;;;;;2.93;2.67;;;13.60;99.90;;;;;;4974791;28;20883;-64
2023/09/21 05:17:36;;;;;;;2.47;2.27;;;13.60;99.90;;;;;;4972437;28;20511;-64
2023/09/21 05:20:04;;;;;;;3.63;3.33;;;13.70;99.90;;;;;;4972157;28;20477;-64
2023/09/21 05:22:33;;;;;;;3.33;2.90;;;13.70;99.90;;;;;;4972348;28;20951;-65
2023/09/21 05:25:00;;;;;;;2.63;2.43;;;13.80;99.90;;;;;;4972442;28;20460;-65
2023/09/21 05:27:29;;;;;;;3.20;2.90;;;13.90;99.90;;;;;;4973366;28;20455;-64
2023/09/21 05:29:57;;;;;;;2.70;2.50;;;13.90;99.90;;;;;;4980725;28;20459;-65
2023/09/21 05:32:24;;;;;;;3.07;2.87;;;13.90;99.90;;;;;;4984717;28;20448;-65
2023/09/21 05:34:51;;;;;;;2.77;2.57;;;14.00;99.90;;;;;;4985389;28;20437;-64
2023/09/21 05:37:19;;;;;;;3.10;2.80;;;14.00;99.90;;;;;;4984127;28;21155;-65
2023/09/21 05:39:48;;;;;;;3.43;3.13;;;14.00;99.90;;;;;;4995190;28;21067;-64
2023/09/21 05:42:16;;;;;;;2.50;2.23;;;14.00;99.90;;;;;;4995350;28;20459;-65
2023/09/21 05:44:43;;;;;;;3.10;2.37;;;14.00;99.90;;;;;;4995205;28;20445;-65
2023/09/21 05:47:10;;;;;;;2.87;2.67;;;14.00;99.90;;;;;;4995177;28;20469;-65
2023/09/21 05:49:38;;;;;;;3.57;3.27;;;14.00;99.90;;;;;;4995314;28;20469;-65
2023/09/21 05:52:11;;;;;;;4.60;2.77;;;14.00;99.90;;;;;;4989526;28;20502;-65
2023/09/21 05:54:38;;;;;;;2.90;2.60;;;14.00;99.90;;;;;;4992275;28;20455;-65
2023/09/21 05:57:06;;;;;;;3.23;3.03;;;14.00;99.90;;;;;;4995270;28;20499;-64
2023/09/21 05:59:33;;;;;;;3.60;2.80;;;14.00;99.90;;;;;;4994828;28;20484;-64
2023/09/21 06:02:05;;;;;;;7.90;4.27;;;14.10;99.90;;;;;;4995277;28;20509;-64
2023/09/21 06:04:34;;;;;;;3.27;3.07;;;14.10;99.90;;;;;;4994906;28;20876;-65
2023/09/21 06:07:01;;;;;;;2.83;2.63;;;14.10;99.90;;;;;;4994999;28;20448;-65
2023/09/21 06:09:27;;;;;;;2.90;2.70;;;14.20;99.90;;;;;;4994869;28;20568;-65
2023/09/21 06:11:55;;;;;;;5.60;3.60;;;14.30;99.90;;;;;;4994784;28;20452;-65
2023/09/21 06:14:23;;;;;;;3.43;3.23;;;14.30;99.90;;;;;;4993689;28;20468;-65
2023/09/21 06:16:51;;;;;;;3.57;3.03;;;14.30;99.90;;;;;;4993641;28;20565;-64
2023/09/21 06:19:19;;;;;;;3.50;3.20;;;14.40;99.90;;;;;;4989509;28;20837;-65
2023/09/21 06:21:47;;;;;;;4.03;3.20;;;14.40;99.90;;;;;;4990168;28;20466;-65
2023/09/21 06:24:15;;;;;;;6.10;3.13;;;14.50;99.90;;;;;;4989888;28;20561;-65
2023/09/21 06:26:42;;;;;;;6.03;3.23;;;14.50;99.90;;;;;;4990938;28;20478;-65
2023/09/21 06:29:09;;;;;;;3.50;2.90;;;14.60;99.90;;;;;;4994674;28;20476;-65
2023/09/21 06:31:37;;;;;;;3.17;2.87;;;14.70;99.90;;;;;;4994353;28;20449;-64
2023/09/21 06:34:07;;;;;;;4.30;3.70;;;14.70;99.90;;;;;;4994137;28;20451;-65
2023/09/21 06:36:36;;;;;;;3.20;2.93;;;14.80;99.90;;;;;;4994434;28;20487;-65
2023/09/21 06:39:04;;;;;;;3.03;2.83;;;14.90;99.90;;;;;;4994164;28;20473;-64
2023/09/21 06:41:32;;;;;;;3.70;3.40;;;15.00;99.90;;;;;;4994430;28;20457;-64
2023/09/21 06:43:58;;;;;;;4.67;4.23;;;15.10;99.90;;;;;;4993682;28;20842;-64
2023/09/21 06:46:25;;;;;;;3.37;3.07;;;15.20;99.90;;;;;;4994371;28;20451;-64
2023/09/21 06:48:54;;;;;;;4.07;3.67;;;15.30;99.90;;;;;;4994034;28;20986;-65
2023/09/21 06:51:21;;;;;;;4.03;3.73;;;15.40;99.90;;;;;;4994030;28;20463;-65
2023/09/21 06:53:48;;;;;;;3.70;3.40;;;15.40;99.90;;;;;;4993880;28;20451;-65
2023/09/21 06:56:16;;;;;;;4.57;4.17;;;15.50;99.90;;;;;;4994080;28;20741;-64
2023/09/21 06:58:43;;;;;;;4.00;3.60;;;15.60;99.90;;;;;;4993705;28;20517;-64
2023/09/21 07:01:10;;;;;;;4.63;3.63;;;15.60;99.90;;;;;;4993968;28;20474;-64
2023/09/21 07:03:37;;;;;;;4.30;3.40;;;15.70;99.90;;;;;;4993670;28;20455;-65
2023/09/21 07:06:06;;;;;;;4.73;4.27;;;15.70;99.90;;;;;;4993812;28;20440;-65
2023/09/21 07:08:33;;;;;;;4.97;3.53;;;15.80;99.90;;;;;;4993611;28;20453;-64
2023/09/21 07:10:59;;;;;;;4.20;3.90;;;15.90;99.90;;;;;;4986389;28;20833;-64
2023/09/21 07:13:26;;;;;;;4.70;4.30;;;15.90;99.90;;;;;;4974054;28;20452;-64
2023/09/21 07:15:55;;;;;;;6.37;4.07;;;15.90;99.90;;;;;;4974188;28;20450;-64
2023/09/21 07:18:22;;;;;;;5.70;4.43;;;16.00;99.90;;;;;;4974041;28;20450;-64
2023/09/21 07:20:48;;;;;;;4.40;3.93;;;16.00;99.90;;;;;;4973991;28;20836;-64
2023/09/21 07:23:17;;;;;;;4.13;3.80;;;16.10;99.90;;;;;;4979151;28;20446;-64
2023/09/21 07:25:43;;;;;;;4.93;4.47;;;16.20;99.90;;;;;;4983202;28;20542;-64
2023/09/21 07:28:11;;;;;;;4.60;4.20;;;16.20;99.90;;;;;;4975131;28;20468;-64
2023/09/21 07:30:38;;;;;;;4.87;4.47;;;16.30;99.90;;;;;;4978989;28;20503;-64
2023/09/21 07:33:06;;;;;;;4.60;3.83;;;16.40;99.90;;;;;;4983874;28;20450;-64
2023/09/21 07:35:33;;;;;;;4.70;4.40;;;16.40;99.90;;;;;;4983297;28;20450;-64
2023/09/21 07:38:00;;;;;;;4.20;3.80;;;16.50;99.90;;;;;;4987546;28;20576;-64
2023/09/21 07:40:28;;;;;;;5.43;5.03;;;16.50;99.90;;;;;;4992987;28;20501;-64
2023/09/21 07:42:56;;;;;;;5.67;4.90;;;16.50;99.90;;;;;;4992907;28;20556;-64
2023/09/21 07:45:24;;;;;;;7.60;6.10;;;16.60;99.90;;;;;;4993060;28;20489;-64
2023/09/21 07:47:52;;;;;;;4.57;4.17;;;16.60;99.90;;;;;;4992799;28;20449;-64
2023/09/21 07:50:22;;;;;;;4.67;4.23;;;16.70;99.90;;;;;;4992864;28;20987;-64
2023/09/21 07:52:49;;;;;;;5.50;4.63;;;16.80;99.90;;;;;;4985015;28;20976;-64
2023/09/21 07:55:16;;;;;;;5.37;4.90;;;16.90;99.90;;;;;;4982817;28;20452;-64
2023/09/21 07:57:47;;;;;;;5.97;4.63;;;17.00;99.90;;;;;;4980753;28;20493;-64
2023/09/21 08:00:14;;;;;;;5.20;4.77;;;17.00;99.90;;;;;;4972879;28;20487;-64
2023/09/21 08:02:41;;;;;;;6.80;5.00;;;17.10;99.90;;;;;;4972540;28;20930;-64
2023/09/21 08:05:09;;;;;;;11.90;7.03;;;17.20;99.90;;;;;;4973105;28;20452;-64
2023/09/21 08:07:36;;;;;;;8.03;5.40;;;17.30;99.90;;;;;;4973446;28;20539;-64
2023/09/21 08:10:05;;;;;;;5.03;4.63;;;17.30;99.90;;;;;;4973080;28;20475;-64
2023/09/21 08:12:31;;;;;;;4.87;4.53;;;17.40;99.90;;;;;;4972986;28;20529;-64
2023/09/21 08:15:00;;;;;;;4.97;4.57;;;17.50;99.90;;;;;;4978653;28;20541;-62
2023/09/21 08:17:29;;;;;;;4.20;3.87;;;17.60;99.90;;;;;;4972441;28;20490;-62
2023/09/21 08:19:56;;;;;;;4.70;4.30;;;17.60;99.90;;;;;;4972416;28;21006;-62
2023/09/21 08:22:23;;;;;;;4.60;4.20;;;17.70;99.90;;;;;;4977737;28;20442;-62
2023/09/21 08:24:50;;;;;;;7.10;4.83;;;17.70;99.90;;;;;;4982880;28;20452;-62
2023/09/21 08:27:18;;;;;;;5.60;5.20;;;17.80;99.90;;;;;;4985955;28;20825;-62
2023/09/21 08:29:44;;;;;;;6.67;6.17;;;17.90;99.90;;;;;;4990918;28;20549;-62
2023/09/21 08:32:15;;;;;;;10.10;5.33;;;18.00;99.90;;;;;;4991381;28;20450;-62
2023/09/21 08:34:44;;;;;;;5.57;5.17;;;18.00;99.90;;;;;;4991675;28;20476;-62
2023/09/21 08:37:10;;;;;;;5.60;5.10;;;18.10;99.90;;;;;;4991376;28;20491;-62
2023/09/21 08:39:37;;;;;;;8.00;4.60;;;18.30;99.90;;;;;;4991673;28;20989;-61
2023/09/21 08:42:04;;;;;;;4.83;4.33;;;18.50;99.90;;;;;;4991546;28;20532;-62
2023/09/21 08:44:31;;;;;;;3.60;3.33;;;18.60;99.90;;;;;;4991608;28;20533;-62
2023/09/21 08:46:59;;;;;;;4.43;4.13;;;18.90;99.90;;;;;;4991486;28;20450;-62
2023/09/21 08:49:29;;;;;;;8.30;3.90;;;19.10;99.90;;;;;;4991598;28;20558;-62
2023/09/21 08:51:58;;;;;;;4.43;4.03;;;19.30;99.90;;;;;;4991824;28;20537;-62
2023/09/21 08:54:25;;;;;;;3.93;3.30;;;19.50;99.90;;;;;;4991349;28;20458;-62
2023/09/21 08:56:55;;;;;;;4.03;3.73;;;19.70;99.90;;;;;;4991352;28;20487;-62
2023/09/21 08:59:22;;;;;;;3.60;3.40;;;19.80;99.90;;;;;;4991560;28;20482;-62
2023/09/21 09:01:49;;;;;;;5.27;4.57;;;19.90;99.90;;;;;;4991515;28;20978;-62
2023/09/21 09:04:19;;;;;;;4.43;4.00;;;20.10;99.90;;;;;;4991363;28;20834;-62
2023/09/21 09:06:47;;;;;;;4.27;3.97;;;20.30;99.90;;;;;;4994709;28;20462;-62
2023/09/21 09:09:15;;;;;;;3.97;3.77;;;20.60;99.90;;;;;;4995125;28;21053;-62
2023/09/21 09:11:45;;;;;;;5.50;3.63;;;20.80;99.90;;;;;;4995442;28;20480;-62
2023/09/21 09:14:16;;;;;;;3.90;3.60;;;21.10;99.90;;;;;;4994433;28;20537;-62
2023/09/21 09:16:43;;;;;;;3.50;3.20;;;21.20;99.90;;;;;;4995112;28;20536;-62
2023/09/21 09:19:11;;;;;;;4.50;4.23;;;21.30;99.90;;;;;;4994907;28;20477;-62
2023/09/21 09:21:38;;;;;;;4.20;3.90;;;21.50;99.90;;;;;;4995182;28;20949;-62
2023/09/21 09:24:08;;;;;;;4.23;3.93;;;21.60;99.90;;;;;;4987805;28;20877;-62
2023/09/21 09:26:36;;;;;;;4.27;3.90;;;21.70;99.90;;;;;;4983527;28;20454;-62
2023/09/21 09:29:04;;;;;;;3.53;3.03;;;21.70;99.90;;;;;;4978103;28;20470;-62
2023/09/21 09:31:32;;;;;;;3.80;3.30;;;21.80;99.90;;;;;;4993399;28;20442;-62
2023/09/21 09:34:00;;;;;;;4.17;3.87;;;21.90;99.90;;;;;;4994827;28;20458;-62
2023/09/21 09:36:28;;;;;;;6.27;3.37;;;21.90;99.90;;;;;;4995210;28;20439;-62
2023/09/21 09:38:55;;;;;;;4.63;3.67;;;22.00;99.90;;;;;;4994676;28;20469;-62
2023/09/21 09:41:24;;;;;;;3.47;3.13;;;22.00;99.90;;;;;;4994797;28;20497;-62
2023/09/21 09:43:53;;;;;;;4.33;3.27;;;22.10;99.90;;;;;;4993788;28;20446;-62
2023/09/21 09:46:23;;;;;;;5.90;3.30;;;22.20;99.90;;;;;;4994589;28;20892;-62
2023/09/21 09:48:51;;;;;;;8.57;4.20;;;22.30;99.90;;;;;;4994054;28;20470;-62
2023/09/21 09:51:26;;;;;;;3.43;3.20;;;22.30;99.90;;;;;;4994630;28;20533;-62
2023/09/21 09:53:56;;;;;;;3.40;3.20;;;22.50;99.90;;;;;;4993983;28;20454;-62
2023/09/21 09:56:26;;;;;;;3.40;3.20;;;22.50;99.90;;;;;;4994164;28;20443;-62
2023/09/21 09:58:57;;;;;;;5.50;3.83;;;22.70;99.90;;;;;;4993471;28;21169;-62
2023/09/21 10:01:26;;;;;;;4.30;3.90;;;22.90;99.90;;;;;;4994516;28;20460;-62
2023/09/21 10:03:55;;;;;;;4.90;3.73;;;23.10;99.90;;;;;;4993757;28;20946;-62
2023/09/21 10:06:23;;;;;;;6.53;4.00;;;23.30;99.90;;;;;;4993872;28;20486;-62
2023/09/21 10:08:51;;;;;;;3.63;3.10;;;23.40;99.90;;;;;;4994019;28;20463;-62
2023/09/21 10:11:20;;;;;;;5.17;2.80;;;23.60;99.90;;;;;;4987948;28;20451;-62
2023/09/21 10:13:53;;;;;;;3.47;3.17;;;23.70;99.90;;;;;;4986278;28;20449;-62
2023/09/21 10:16:20;;;;;;;3.50;3.20;;;23.70;99.90;;;;;;4985896;28;20507;-62
2023/09/21 10:18:53;;;;;;;3.57;3.30;;;23.80;99.90;;;;;;4993021;28;20519;-62
2023/09/21 10:21:24;;;;;;;3.70;3.50;;;23.90;99.90;;;;;;4978078;28;20444;-62
2023/09/21 10:24:06;;;;;;;4.43;3.63;;;23.90;99.90;;;;;;4985865;28;21001;-62
2023/09/21 10:26:38;;;;;;;3.50;3.20;;;23.90;99.90;;;;;;4987805;28;20845;-65
2023/09/21 10:29:07;;;;;;;3.90;3.60;;;23.90;99.90;;;;;;4977122;28;20468;-65
2023/09/21 10:31:34;;;;;;;4.37;3.87;;;23.80;99.90;;;;;;4988077;28;20534;-64
2023/09/21 10:34:13;;;;;;;4.27;3.50;;;23.80;99.90;;;;;;4982341;28;20448;-65
2023/09/21 10:36:51;;;;;;;4.27;3.40;;;23.80;99.90;;;;;;4978892;28;20449;-65
2023/09/21 10:39:25;;;;;;;3.90;3.20;;;23.80;99.90;;;;;;4977452;28;20830;-65
2023/09/21 10:41:54;;;;;;;3.63;3.33;;;23.80;99.90;;;;;;4985416;28;20440;-65
2023/09/21 10:44:57;;;;;;;3.43;3.10;;;23.80;99.90;;;;;;4984367;28;20448;-65
2023/09/21 10:47:30;;;;;;;3.97;3.60;;;23.70;99.90;;;;;;4977789;28;20432;-65
2023/09/21 10:49:59;;;;;;;4.13;3.73;;;23.80;99.90;;;;;;4984177;28;20547;-65
2023/09/21 10:52:27;;;;;;;3.43;2.83;;;23.80;99.90;;;;;;4976974;28;20453;-65
2023/09/21 10:54:55;;;;;;;3.70;3.40;;;23.80;99.90;;;;;;4989637;28;20446;-65
2023/09/21 10:57:26;;;;;;;3.40;3.10;;;23.80;99.90;;;;;;4977276;28;20487;-65
2023/09/21 10:59:54;;;;;;;4.27;3.60;;;23.80;99.90;;;;;;4984798;28;20487;-65
2023/09/21 11:02:23;;;;;;;4.30;3.70;;;23.80;99.90;;;;;;4985466;28;20518;-65
2023/09/21 11:04:52;;;;;;;5.17;3.33;;;23.80;99.90;;;;;;4993269;28;20459;-65
2023/09/21 11:07:21;;;;;;;3.37;3.07;;;23.90;99.90;;;;;;4976992;28;20945;-65
2023/09/21 11:09:48;;;;;;;4.17;3.30;;;23.90;99.90;;;;;;4985426;28;20991;-65
2023/09/21 11:12:17;;;;;;;3.27;2.97;;;23.90;99.90;;;;;;4984252;28;20451;-65
2023/09/21 11:14:45;;;;;;;3.20;3.00;;;23.90;99.90;;;;;;4977622;28;21016;-65
2023/09/21 11:17:13;;;;;;;5.00;4.00;;;24.00;99.90;;;;;;4989236;28;20537;-65
2023/09/21 11:19:42;;;;;;;2.90;2.60;;;24.10;99.90;;;;;;4979357;28;20515;-65
2023/09/21 11:22:10;;;;;;;3.20;2.90;;;24.10;99.90;;;;;;4982559;28;20824;-64
2023/09/21 11:24:37;;;;;;;2.43;2.33;;;24.20;99.90;;;;;;4986632;28;20527;-65
2023/09/21 11:27:06;;;;;;;3.37;3.10;;;24.30;99.90;;;;;;4976576;28;20445;-65
2023/09/21 11:29:34;;;;;;;4.23;3.13;;;24.30;99.90;;;;;;4986177;28;20540;-65
2023/09/21 11:32:01;;;;;;;3.20;3.00;;;24.30;99.90;;;;;;4982075;28;20443;-65
2023/09/21 11:34:29;;;;;;;2.70;2.50;;;24.30;99.90;;;;;;4979368;28;20446;-65
2023/09/21 11:36:58;;;;;;;2.87;2.67;;;24.30;98.70;;;;;;4988905;28;20451;-65
2023/09/21 11:39:28;;;;;;;3.63;2.50;;;24.30;98.40;;;;;;4976999;28;20573;-65
2023/09/21 11:41:56;;;;;;;5.10;2.03;;;24.30;98.30;;;;;;4984112;28;20525;-65
2023/09/21 11:44:27;;;;;;;2.60;2.40;;;24.30;98.00;;;;;;4984678;28;20449;-65
2023/09/21 11:46:57;;;;;;;4.57;2.70;;;24.30;97.90;;;;;;4976113;28;20867;-65
2023/09/21 11:49:35;;;;;;;2.30;2.20;;;24.40;96.70;;;;;;4987777;28;20561;-65
2023/09/21 11:52:04;;;;;;;4.33;2.30;;;24.40;96.90;;;;;;4982091;28;20528;-65
2023/09/21 11:54:34;;;;;;;2.97;2.57;;;24.50;96.50;;;;;;4978838;28;20455;-65
2023/09/21 11:57:04;;;;;;;2.13;1.80;;;24.50;95.80;;;;;;4988361;28;20449;-65
2023/09/21 11:59:32;;;;;;;2.83;2.60;;;24.50;96.30;;;;;;4976850;28;20488;-65
2023/09/21 12:02:00;;;;;;;2.83;2.63;;;24.50;95.80;;;;;;5014638;23;20496;-64
2023/09/21 12:04:31;;;;;;;2.00;1.90;;;24.50;95.50;;;;;;5003438;28;20485;-65
2023/09/21 12:06:58;;;;;;;3.03;2.10;;;24.60;96.00;;;;;;4995191;28;20511;-64
2023/09/21 12:09:27;;;;;;;3.53;2.50;;;24.50;96.20;;;;;;5006862;28;20445;-64
2023/09/21 12:11:54;;;;;;;2.80;2.60;;;24.60;95.90;;;;;;4999879;28;20461;-65
2023/09/21 12:14:22;;;;;;;2.40;2.30;;;24.60;96.40;;;;;;4999336;28;20454;-64
2023/09/21 12:16:51;;;;;;;2.97;2.67;;;24.60;96.70;;;;;;5007120;28;20455;-65
2023/09/21 12:19:18;;;;;;;2.33;2.13;;;24.60;96.60;;;;;;5007650;28;20489;-64
2023/09/21 12:21:48;;;;;;;2.80;2.60;;;24.70;97.90;;;;;;5010309;28;20816;-65
2023/09/21 12:24:20;;;;;;;3.30;3.00;;;24.70;96.70;;;;;;5002567;28;20540;-64
2023/09/21 12:26:48;;;;;;;3.00;2.80;;;24.80;97.90;;;;;;4996125;28;20450;-65
2023/09/21 12:29:17;;;;;;;3.67;2.93;;;24.80;97.30;;;;;;5008114;28;20442;-65
2023/09/21 12:31:45;;;;;;;3.07;2.83;;;25.00;97.90;;;;;;4998647;28;20469;-65
2023/09/21 12:34:14;;;;;;;3.10;2.80;;;25.10;97.80;;;;;;4999804;28;20492;-65
2023/09/21 12:36:42;;;;;;;2.97;2.77;;;25.10;96.40;;;;;;5006174;28;20438;-65
2023/09/21 12:39:09;;;;;;;3.17;2.87;;;25.20;97.10;;;;;;4995017;28;20863;-65
2023/09/21 12:41:38;;;;;;;3.10;2.90;;;25.20;95.90;;;;;;5005046;28;20476;-65
2023/09/21 12:44:07;;;;;;;3.93;2.97;;;25.20;96.60;;;;;;5000757;28;20464;-64
2023/09/21 12:46:36;;;;;;;3.00;2.80;;;25.20;95.80;;;;;;4997510;28;20922;-65
2023/09/21 12:49:04;;;;;;;7.43;3.37;;;25.20;96.20;;;;;;5007502;28;20983;-64
2023/09/21 12:51:32;;;;;;;3.40;2.33;;;25.20;95.70;;;;;;4996585;28;20890;-65
2023/09/21 12:53:58;;;;;;;3.73;3.40;;;25.30;96.80;;;;;;5002021;28;20463;-64